Maple, North Carolina
Current Conditions -  °F | °C
As of 3:35 PM on Wednesday 26 Nov 2014 (Local Time) from KONX Reporting Station
Overcast Overcast  
Wind Chill: 41°   Ceiling: 1200
Heat Index: 46°   Visibility: 10mi
Dew Point: 43°   Wind: 10mph
Humidity: 90%   Direction: 300°WNW
Pressure: 29.82"   Gusts: 18mph
Location:  36.41°N, 76°W
Report Text: KONX 262035Z AUTO 30009G16KT 10SM OVC012 08/06 A2982 RMK AO2 T00780063
Loading
Personal Weather Stations






























Interactive Weather Map New forecast layout! Learn more

10-Day Weather Forecast

Advertisements
Track Severe Weather on mobile